Ayr, ND

7:20 PM CDT on April 24, 2015 (GMT -0500)
Home of the Absaraka Crows | | Change Station
CLOSE
Current Station
Personal Weather Station
Location: Absaraka, ND
Elevation: 1066 ft
Nearby Weather Stations

Elev 1066 ft 46.98 °N, 97.39 °W | Updated 2 seconds ago

Overcast
Overcast
50.9 °F
Feels Like 50.9 °F
N
9.8
Wind Variable Wind from East
Gusts 14.5 mph

Today
High -- | Low -- °F
--% Chance of Precip.
Yesterday
High -- | Low -- °F
Precip. -- in
6:26 AM 8:31 PM
Waxing Crescent, 40% visible
Pressure 29.69 in
Visibility 10.0 miles
Clouds Mostly Cloudy 2500 ft
Overcast 4900 ft
Dew Point 45 °F
Humidity 80%
Rainfall 0.30 in
Snow Depth Not available.
UV 0 out of 12
Pollen 8.50 out of 12
Air Quality Not available.
Flu Activity Regional
METAR KBAC 250015Z AUTO 10015G20KT 10SM BKN025 OVC049 10/07 A2969 RMK AO2

More Conditions Fewer Conditions

Pressure 29.69 in
Visibility 10.0 miles
Clouds Mostly Cloudy 2500 ft
Overcast 4900 ft
Dew Point 45 °F
Humidity 80%
Rainfall 0.30 in
Snow Depth Not available.
UV 0 out of 12
Pollen 8.50 out of 12
Air Quality Not available.
Flu Activity Regional
METAR KBAC 250015Z AUTO 10015G20KT 10SM BKN025 OVC049 10/07 A2969 RMK AO2

More Conditions Fewer Conditions

10-Day Weather Forecast

Almanac

Astronomy

Apr. 24, 2015 Rise Set
Actual Time
Civil Twilight
Nautical Twilight
Astronomical Twilight
Moon
Length of Visible Light
Length of Day
Tomorrow will be .
, % of the Moon is Illuminated

Today's Extremes

State Highs State Lows

Community

WunderPhotos

Upload Photos

1,816,515 photos uploaded!

WunderBlogs® & News

Nearby

Air Quality

  Air Quality AQ Index Pollutant
Not available.

Snow Depth

Station Depth Elevation

Earthquake Activity

City Distance Mag. Time & Date
Minimum magnitude displayed is 2.5.

Coastal Water Temperatures

Place Temperature

Stations

Nearby Weather Stations

Station Location Temp. Windchill Dew Point Humidity Wind Precip. Elev Updated Type